Time;durP1;ratioP1;P1;durP2;ratioP2;P2;SDS_P1;SDS_P2;PMS_P1;PMS_P2;Temp;Humidity;BMP_temperature;BMP_pressure;BME280_temperature;BME280_humidity;BME280_pressure;Samples;Min_cycle;Max_cycle;Signal;HPM_P1;HPM_P2
2023/12/12 00:00:58;;;;;;;4.63;2.60;;;16.90;65.20;17.90;100043.00;;;;5067740;28;20183;-45
2023/12/12 00:03:24;;;;;;;4.17;2.50;;;16.90;65.20;17.90;100056.00;;;;5064211;28;20175;-46
2023/12/12 00:05:50;;;;;;;3.47;2.33;;;16.90;65.20;17.90;100052.00;;;;5068741;28;20224;-46
2023/12/12 00:08:16;;;;;;;3.63;2.33;;;16.90;65.20;17.90;100053.00;;;;5068010;28;20624;-45
2023/12/12 00:10:41;;;;;;;2.87;2.00;;;16.90;65.20;17.90;100058.00;;;;5068774;28;20201;-46
2023/12/12 00:13:07;;;;;;;4.27;2.40;;;16.90;65.10;17.80;100062.00;;;;5068158;28;20236;-45
2023/12/12 00:30:17;;;;;;;3.53;2.37;;;16.80;64.80;17.70;100028.00;;;;5055009;28;20189;-45
2023/12/12 00:32:43;;;;;;;3.87;2.40;;;16.80;64.80;17.70;100029.00;;;;5057470;28;20194;-45
2023/12/12 00:35:09;;;;;;;3.60;2.20;;;16.80;64.80;17.70;100029.00;;;;5068206;28;20182;-45
2023/12/12 00:37:35;;;;;;;3.77;2.50;;;16.80;64.90;17.70;100026.00;;;;5068286;28;20692;-45
2023/12/12 00:40:01;;;;;;;4.23;2.50;;;16.80;64.80;17.70;100018.00;;;;5067685;28;20192;-45
2023/12/12 00:42:27;;;;;;;3.20;2.23;;;16.80;64.80;17.60;100019.00;;;;5068554;28;20663;-45
2023/12/12 00:44:53;;;;;;;2.43;2.17;;;16.80;64.80;17.70;100025.00;;;;5062674;28;20193;-45
2023/12/12 00:47:19;;;;;;;4.30;2.37;;;16.70;64.70;17.60;100031.00;;;;5061219;28;20201;-45
2023/12/12 00:49:45;;;;;;;4.43;2.30;;;16.80;64.80;17.60;100030.00;;;;5054755;28;20186;-45
2023/12/12 00:52:11;;;;;;;3.17;2.20;;;16.70;64.70;17.60;100029.00;;;;5047905;28;20202;-45
2023/12/12 00:54:36;;;;;;;4.43;2.40;;;16.70;64.70;17.70;100021.00;;;;5048290;28;20173;-45
2023/12/12 00:57:03;;;;;;;3.33;2.30;;;16.70;64.80;17.60;100017.00;;;;5048372;28;20198;-45
2023/12/12 00:59:28;;;;;;;3.43;2.10;;;16.70;64.90;17.60;100025.00;;;;5047406;28;20179;-45
2023/12/12 01:01:54;;;;;;;2.50;2.03;;;16.70;65.00;17.60;100030.00;;;;5047931;28;20188;-45
2023/12/12 01:04:20;;;;;;;3.00;2.27;;;16.60;65.00;17.60;100017.00;;;;5048741;28;20673;-46
2023/12/12 01:06:46;;;;;;;4.07;2.20;;;16.70;64.90;17.60;100037.00;;;;5047371;28;20198;-46
2023/12/12 01:09:12;;;;;;;3.53;2.27;;;16.70;64.90;17.60;100026.00;;;;5054203;28;20561;-46
2023/12/12 01:11:37;;;;;;;3.77;2.37;;;16.60;64.90;17.60;100012.00;;;;5047490;28;20198;-45
2023/12/12 01:14:03;;;;;;;2.67;2.23;;;16.60;64.90;17.60;100032.00;;;;5047367;28;20709;-46
2023/12/12 01:16:29;;;;;;;2.70;2.20;;;16.60;64.90;17.60;100020.00;;;;5047120;28;20254;-46
2023/12/12 01:18:55;;;;;;;5.20;2.70;;;16.60;64.90;17.60;100023.00;;;;5045462;28;20711;-46
2023/12/12 01:21:21;;;;;;;4.17;2.40;;;16.60;64.90;17.60;100027.00;;;;5047258;28;20199;-46
2023/12/12 01:23:50;;;;;;;4.47;2.60;;;16.60;64.90;17.60;100026.00;;;;5047367;28;20178;-46
2023/12/12 01:26:17;;;;;;;3.53;2.33;;;16.60;64.90;17.60;100025.00;;;;5047772;28;20224;-46
2023/12/12 01:28:44;;;;;;;3.63;2.30;;;16.60;65.00;17.50;100016.00;;;;5046050;28;20234;-46
2023/12/12 01:31:10;;;;;;;3.13;2.23;;;16.60;65.00;17.50;100032.00;;;;5045950;28;20357;-46
2023/12/12 01:33:36;;;;;;;3.87;2.43;;;16.60;65.00;17.50;100031.00;;;;5047209;28;20264;-46
2023/12/12 01:36:02;;;;;;;3.57;2.37;;;16.50;65.00;17.50;100022.00;;;;5047126;28;20225;-46
2023/12/12 01:38:28;;;;;;;3.57;2.33;;;16.50;65.70;17.50;100025.00;;;;5046483;28;20196;-46
2023/12/12 01:40:54;;;;;;;5.93;2.60;;;16.50;64.90;17.50;100022.00;;;;5046620;28;20190;-46
2023/12/12 01:43:27;;;;;;;3.73;2.50;;;16.50;65.00;17.50;100025.00;;;;5046846;28;20181;-46
2023/12/12 01:46:05;;;;;;;3.67;2.40;;;16.50;65.00;17.50;100019.00;;;;5046826;28;20616;-46
2023/12/12 01:48:32;;;;;;;3.63;2.30;;;16.50;64.90;17.50;100008.00;;;;5046047;28;20186;-46
2023/12/12 01:50:57;;;;;;;4.70;2.40;;;16.50;64.90;17.50;99999.00;;;;5046947;28;20585;-56
2023/12/12 01:53:35;;;;;;;5.40;2.80;;;16.50;64.90;17.50;100012.00;;;;5046558;28;20289;-46
2023/12/12 01:56:01;;;;;;;3.40;2.33;;;16.50;64.90;17.50;100005.00;;;;5047898;28;20250;-46
2023/12/12 01:58:27;;;;;;;3.30;2.30;;;16.50;64.90;17.50;100020.00;;;;5032086;28;21090;-46
2023/12/12 02:00:53;;;;;;;5.00;2.67;;;16.50;64.80;17.40;100009.00;;;;5056045;28;20182;-46
2023/12/12 02:03:19;;;;;;;4.40;2.30;;;16.50;64.90;17.40;100006.00;;;;5049527;28;20177;-46
2023/12/12 02:05:45;;;;;;;4.17;2.60;;;16.50;65.00;17.40;100013.00;;;;5049570;28;20205;-46
2023/12/12 02:08:11;;;;;;;3.33;2.30;;;16.50;64.90;17.40;100005.00;;;;5048941;28;20245;-46
2023/12/12 02:10:37;;;;;;;3.47;2.40;;;16.40;64.90;17.40;100009.00;;;;5032755;28;20189;-46
2023/12/12 02:13:04;;;;;;;3.20;2.40;;;16.40;64.90;17.40;100004.00;;;;5050211;28;20749;-46
2023/12/12 02:15:30;;;;;;;3.90;2.33;;;16.40;64.80;17.40;100003.00;;;;5050463;28;20173;-46
2023/12/12 02:17:56;;;;;;;3.53;2.43;;;16.40;64.80;17.40;100009.00;;;;5048541;28;20181;-46
2023/12/12 02:20:22;;;;;;;4.10;2.47;;;16.40;64.90;17.40;100001.00;;;;5050233;28;20706;-46
2023/12/12 02:22:48;;;;;;;4.60;2.80;;;16.40;64.80;17.40;100017.00;;;;5050363;28;20243;-46
2023/12/12 02:25:17;;;;;;;3.80;2.60;;;16.40;64.90;17.40;100013.00;;;;5050725;28;20235;-46
2023/12/12 02:27:42;;;;;;;4.20;2.50;;;16.40;64.90;17.40;100019.00;;;;5049462;28;20722;-46
2023/12/12 02:30:09;;;;;;;4.17;2.40;;;16.40;64.90;17.40;100011.00;;;;5047916;28;20181;-46
2023/12/12 02:32:35;;;;;;;4.37;2.40;;;16.40;64.90;17.40;100008.00;;;;5050681;28;20219;-46
2023/12/12 02:35:01;;;;;;;4.63;2.60;;;16.40;64.90;17.30;100013.00;;;;5050707;28;20181;-45
2023/12/12 02:37:27;;;;;;;4.93;2.53;;;16.30;64.80;17.30;100012.00;;;;5049531;28;20220;-46
2023/12/12 02:39:53;;;;;;;3.87;2.50;;;16.30;64.90;17.30;100017.00;;;;5049652;28;20182;-45
2023/12/12 02:42:19;;;;;;;3.30;2.47;;;16.30;64.90;17.30;100023.00;;;;5050111;28;20186;-45
2023/12/12 02:44:44;;;;;;;4.03;2.60;;;16.30;64.90;17.30;100008.00;;;;5049247;28;20221;-45
2023/12/12 02:47:10;;;;;;;3.63;2.60;;;16.30;64.90;17.30;100012.00;;;;5050008;28;20201;-45
2023/12/12 02:49:36;;;;;;;3.03;2.40;;;16.30;64.90;17.30;100012.00;;;;5048814;28;20260;-45
2023/12/12 02:52:02;;;;;;;3.77;2.50;;;16.30;64.90;17.30;100013.00;;;;5048808;28;20209;-45
2023/12/12 02:54:28;;;;;;;4.27;2.50;;;16.30;65.00;17.30;100013.00;;;;5048982;28;20207;-45
2023/12/12 02:56:54;;;;;;;3.80;2.43;;;16.30;65.70;17.30;100008.00;;;;5049651;28;20225;-45
2023/12/12 02:59:20;;;;;;;4.63;2.60;;;16.30;64.90;17.30;100006.00;;;;5048921;28;20189;-45
2023/12/12 03:01:49;;;;;;;3.80;2.70;;;16.30;65.20;17.30;100020.00;;;;5050140;28;20189;-49
2023/12/12 03:04:15;;;;;;;5.70;2.83;;;16.30;65.40;17.30;100009.00;;;;5052107;28;20265;-45
2023/12/12 03:06:41;;;;;;;5.23;2.77;;;16.30;65.40;17.20;100012.00;;;;5049666;28;20288;-44
2023/12/12 03:09:07;;;;;;;4.13;2.60;;;16.20;65.30;17.20;100010.00;;;;5047550;28;20196;-46
2023/12/12 03:11:34;;;;;;;4.67;2.60;;;16.30;65.40;17.20;100017.00;;;;5049210;28;20285;-46
2023/12/12 03:14:00;;;;;;;3.37;2.50;;;16.30;65.40;17.20;100019.00;;;;5049751;28;20170;-46
2023/12/12 03:16:26;;;;;;;4.73;2.67;;;16.30;65.40;17.20;100007.00;;;;5050256;28;20568;-46
2023/12/12 03:18:52;;;;;;;4.37;2.57;;;16.20;65.30;17.20;100009.00;;;;5048619;28;20182;-46
2023/12/12 03:21:19;;;;;;;4.80;2.73;;;16.20;65.30;17.20;100005.00;;;;5050111;28;20230;-47
2023/12/12 03:23:46;;;;;;;5.13;2.63;;;16.20;65.30;17.20;100011.00;;;;5049034;28;20188;-46
2023/12/12 03:26:12;;;;;;;5.37;2.80;;;16.20;65.20;17.20;100004.00;;;;5050313;28;20278;-46
2023/12/12 03:28:38;;;;;;;5.53;2.80;;;16.20;65.20;17.20;100003.00;;;;5048136;28;20846;-46
2023/12/12 03:31:04;;;;;;;5.70;3.00;;;16.20;65.20;17.10;99999.00;;;;5049353;28;20280;-46
2023/12/12 03:33:30;;;;;;;4.93;2.70;;;16.20;65.20;17.10;100000.00;;;;5049372;28;20204;-46
2023/12/12 03:35:56;;;;;;;3.40;2.60;;;16.20;65.20;17.10;99994.00;;;;5049242;28;20233;-46
2023/12/12 03:38:22;;;;;;;4.73;2.40;;;16.20;65.20;17.10;99990.00;;;;5048135;28;20212;-46
2023/12/12 03:40:48;;;;;;;3.63;2.40;;;16.20;65.00;17.10;99993.00;;;;5048904;28;20186;-45
2023/12/12 03:43:13;;;;;;;4.93;2.73;;;16.10;64.90;17.10;99979.00;;;;5049287;28;20257;-45
2023/12/12 03:45:40;;;;;;;4.80;2.60;;;16.10;65.10;17.10;99981.00;;;;5056431;28;20683;-45
2023/12/12 03:48:06;;;;;;;4.33;2.43;;;16.10;65.00;17.10;99987.00;;;;5048411;28;20192;-45
2023/12/12 03:50:32;;;;;;;4.93;2.70;;;16.10;65.00;17.10;99984.00;;;;5048893;28;20218;-45
2023/12/12 03:52:58;;;;;;;4.10;2.80;;;16.10;64.90;17.10;99991.00;;;;5048767;28;20269;-46
2023/12/12 03:55:24;;;;;;;4.10;2.63;;;16.10;65.00;17.10;99990.00;;;;5049515;28;20215;-45
2023/12/12 03:57:50;;;;;;;5.47;3.03;;;16.10;65.20;17.10;99987.00;;;;5048618;28;20257;-45
2023/12/12 04:00:16;;;;;;;5.23;2.80;;;16.10;65.20;17.00;99980.00;;;;5039952;28;20610;-45
2023/12/12 04:02:42;;;;;;;4.53;2.60;;;16.10;65.20;17.00;99984.00;;;;5049780;28;20263;-45
2023/12/12 04:05:11;;;;;;;4.47;2.63;;;16.10;65.20;17.00;99974.00;;;;5048471;28;20182;-45
2023/12/12 04:07:37;;;;;;;4.53;2.63;;;16.10;65.20;17.00;99970.00;;;;5041709;28;20298;-45
2023/12/12 04:10:06;;;;;;;4.93;2.60;;;16.10;65.10;17.00;99964.00;;;;5048921;28;20183;-45
2023/12/12 04:12:35;;;;;;;4.40;2.70;;;16.00;65.00;17.00;99965.00;;;;5050351;28;20204;-45
2023/12/12 04:15:02;;;;;;;4.03;2.60;;;16.10;65.20;17.00;99968.00;;;;5050101;28;20176;-45
2023/12/12 04:17:29;;;;;;;5.27;2.90;;;16.00;65.00;17.00;99967.00;;;;5052061;28;20215;-46
2023/12/12 04:19:55;;;;;;;5.03;2.73;;;16.00;65.00;17.00;99962.00;;;;5053697;28;20265;-45
2023/12/12 04:22:21;;;;;;;3.37;2.33;;;16.00;65.00;17.00;99957.00;;;;5050333;28;20261;-45
2023/12/12 04:24:47;;;;;;;4.97;2.87;;;16.00;65.00;17.00;99953.00;;;;5050956;28;20193;-45
2023/12/12 04:27:12;;;;;;;4.60;2.63;;;16.00;65.00;17.00;99950.00;;;;5051595;28;20732;-44
2023/12/12 04:29:38;;;;;;;5.63;2.90;;;16.00;65.20;17.00;99937.00;;;;5048128;28;20881;-46
2023/12/12 04:32:05;;;;;;;6.03;3.10;;;16.00;65.60;16.90;99941.00;;;;5049164;28;20232;-44
2023/12/12 04:34:34;;;;;;;4.37;2.80;;;15.90;66.80;16.90;99931.00;;;;5049465;28;20180;-45
2023/12/12 04:37:01;;;;;;;5.07;2.57;;;15.90;65.70;16.90;99915.00;;;;5049316;28;20195;-45
2023/12/12 04:39:27;;;;;;;5.33;2.70;;;16.00;65.60;16.90;99934.00;;;;5047267;28;20179;-45
2023/12/12 04:41:53;;;;;;;5.83;2.70;;;15.90;65.20;16.90;99926.00;;;;5049160;28;20239;-45
2023/12/12 04:44:19;;;;;;;5.10;2.90;;;15.90;65.20;16.90;99927.00;;;;5048953;28;20907;-48
2023/12/12 04:46:44;;;;;;;6.23;3.00;;;16.00;65.20;16.90;99924.00;;;;5047916;28;20217;-47
2023/12/12 04:49:10;;;;;;;5.43;2.83;;;15.90;65.00;16.70;99921.00;;;;5048368;28;20243;-47
2023/12/12 04:51:36;;;;;;;6.67;3.03;;;16.00;65.20;16.90;99914.00;;;;5049162;28;20302;-45
2023/12/12 04:54:02;;;;;;;4.27;2.40;;;15.90;65.00;16.90;99918.00;;;;5048873;28;20181;-46
2023/12/12 04:56:28;;;;;;;5.57;2.70;;;15.90;65.00;16.90;99921.00;;;;5049443;28;20192;-46
2023/12/12 04:58:53;;;;;;;3.97;2.60;;;15.90;65.00;16.90;99929.00;;;;5047645;28;20264;-46
2023/12/12 05:01:19;;;;;;;4.70;2.60;;;15.90;64.90;16.90;99920.00;;;;5049095;28;20238;-46
2023/12/12 05:03:45;;;;;;;4.03;2.50;;;15.90;65.00;16.80;99917.00;;;;5051216;28;20221;-46
2023/12/12 05:06:11;;;;;;;5.03;2.60;;;15.90;64.90;16.80;99914.00;;;;5049306;28;20212;-46
2023/12/12 05:08:37;;;;;;;5.00;2.80;;;15.90;64.90;16.90;99915.00;;;;5048336;28;20168;-46
2023/12/12 05:11:04;;;;;;;4.47;2.50;;;15.80;64.90;16.80;99918.00;;;;5048560;28;20186;-46
2023/12/12 05:13:30;;;;;;;4.97;2.70;;;15.90;64.80;16.80;99920.00;;;;5048411;28;20305;-45
2023/12/12 05:15:56;;;;;;;4.83;2.73;;;15.80;64.70;16.80;99924.00;;;;5049063;28;20207;-47
2023/12/12 05:18:22;;;;;;;4.83;2.93;;;15.90;64.80;16.80;99923.00;;;;5048237;28;20180;-46
2023/12/12 05:20:48;;;;;;;4.20;2.50;;;15.90;64.80;16.80;99914.00;;;;5047399;28;20572;-46
2023/12/12 05:23:14;;;;;;;3.47;2.40;;;15.80;64.80;16.80;99910.00;;;;5048947;28;20394;-45
2023/12/12 05:25:40;;;;;;;3.63;2.50;;;15.80;64.90;16.80;99911.00;;;;5049018;28;20318;-46
2023/12/12 05:28:06;;;;;;;5.53;2.80;;;15.90;65.00;16.80;99906.00;;;;5047683;28;20192;-46
2023/12/12 05:30:32;;;;;;;6.13;2.47;;;15.80;64.90;16.80;99916.00;;;;5047924;28;20670;-46
2023/12/12 05:32:58;;;;;;;4.83;2.60;;;15.80;65.70;16.80;99904.00;;;;5051509;28;20234;-46
2023/12/12 05:35:23;;;;;;;4.37;2.50;;;15.80;65.00;16.70;99907.00;;;;5053273;28;20218;-46
2023/12/12 05:37:49;;;;;;;6.20;2.70;;;15.80;64.90;16.70;99901.00;;;;5052268;28;20177;-46
2023/12/12 05:40:15;;;;;;;4.33;2.43;;;15.80;65.00;16.70;99894.00;;;;5052143;28;20656;-46
2023/12/12 05:42:41;;;;;;;5.80;2.67;;;15.80;64.90;16.70;99902.00;;;;5052465;28;20250;-45
2023/12/12 05:45:08;;;;;;;9.00;2.87;;;15.80;64.90;16.70;99910.00;;;;5052897;28;20187;-45
2023/12/12 05:47:34;;;;;;;5.23;2.50;;;15.80;64.90;16.70;99902.00;;;;5052758;28;20230;-45
2023/12/12 05:50:00;;;;;;;8.83;2.80;;;15.80;65.00;16.70;99902.00;;;;5052014;28;20213;-45
2023/12/12 05:52:26;;;;;;;4.43;2.90;;;15.80;64.90;16.70;99901.00;;;;5052335;28;20200;-46
2023/12/12 05:54:52;;;;;;;4.33;2.50;;;15.80;64.90;16.70;99897.00;;;;5052220;28;20526;-46
2023/12/12 05:57:18;;;;;;;6.37;3.00;;;15.80;64.90;16.70;99903.00;;;;5051406;28;20613;-46
2023/12/12 05:59:44;;;;;;;5.07;2.70;;;15.80;65.00;16.70;99900.00;;;;5051886;28;20652;-46
2023/12/12 06:02:10;;;;;;;6.43;2.40;;;15.80;65.10;16.70;99898.00;;;;5052782;28;20275;-46
2023/12/12 06:04:38;;;;;;;6.83;2.50;;;15.80;65.00;16.70;99896.00;;;;5054734;28;20531;-46
2023/12/12 06:07:04;;;;;;;5.27;2.80;;;15.70;65.10;16.70;99902.00;;;;5051962;28;20204;-46
2023/12/12 06:09:30;;;;;;;7.80;2.80;;;15.70;65.50;16.70;99903.00;;;;5051227;28;20183;-46
2023/12/12 06:11:56;;;;;;;5.20;2.60;;;15.60;65.50;16.70;99911.00;;;;5051629;28;20765;-46
2023/12/12 06:14:22;;;;;;;8.20;2.80;;;15.70;65.60;16.70;99912.00;;;;5051266;28;20396;-46
2023/12/12 06:16:47;;;;;;;8.80;2.80;;;15.70;65.60;16.60;99915.00;;;;5051871;28;20743;-46
2023/12/12 06:19:13;;;;;;;8.03;2.80;;;15.70;65.60;16.60;99909.00;;;;5051559;28;20175;-46
2023/12/12 06:21:39;;;;;;;6.73;2.60;;;15.70;65.50;16.60;99905.00;;;;5052628;28;20664;-46
2023/12/12 06:24:07;;;;;;;9.23;3.00;;;15.70;65.40;16.60;99905.00;;;;5052106;28;20218;-47
2023/12/12 06:26:33;;;;;;;8.53;2.60;;;15.70;65.40;16.60;99909.00;;;;5053110;28;20203;-47
2023/12/12 06:28:59;;;;;;;6.73;2.60;;;15.70;65.50;16.60;99906.00;;;;5050975;28;20520;-46
2023/12/12 06:31:25;;;;;;;9.63;2.90;;;15.70;65.50;16.60;99902.00;;;;5052303;28;20270;-45
2023/12/12 06:33:52;;;;;;;5.57;2.73;;;15.70;65.40;16.60;99904.00;;;;5051926;28;20184;-46
2023/12/12 06:36:17;;;;;;;8.17;2.70;;;15.60;65.30;16.60;99909.00;;;;5052601;28;20247;-45
2023/12/12 06:38:43;;;;;;;8.60;2.90;;;15.60;65.30;16.60;99905.00;;;;5050340;28;20180;-46
2023/12/12 06:41:09;;;;;;;5.20;2.70;;;15.60;65.30;16.60;99910.00;;;;5051654;28;20666;-45
2023/12/12 06:43:36;;;;;;;9.27;2.60;;;15.60;65.40;16.60;99905.00;;;;5051610;28;20181;-45
2023/12/12 06:46:02;;;;;;;5.93;2.47;;;15.60;65.40;16.60;99895.00;;;;5051729;28;20689;-45
2023/12/12 06:48:28;;;;;;;6.27;2.60;;;15.60;65.40;16.60;99894.00;;;;5051446;28;20206;-45
2023/12/12 06:50:54;;;;;;;6.17;2.70;;;15.60;65.40;16.50;99888.00;;;;5049120;28;20183;-46
2023/12/12 06:53:20;;;;;;;5.17;2.77;;;15.60;65.40;16.50;99881.00;;;;5051771;28;20256;-45
2023/12/12 06:55:47;;;;;;;5.17;2.90;;;15.60;65.40;16.50;99882.00;;;;5051978;28;21537;-45
2023/12/12 06:58:16;;;;;;;4.50;2.40;;;15.60;65.40;16.50;99883.00;;;;5051484;28;20189;-46
2023/12/12 07:00:45;;;;;;;4.47;2.33;;;15.60;65.50;16.50;99885.00;;;;5053482;28;20186;-47
2023/12/12 07:03:11;;;;;;;5.50;2.40;;;15.60;65.50;16.50;99869.00;;;;5061236;28;20176;-49
2023/12/12 07:05:37;;;;;;;3.27;2.10;;;15.60;65.50;16.50;99870.00;;;;5049850;28;20181;-46
2023/12/12 07:08:04;;;;;;;5.50;2.60;;;15.50;65.40;16.50;99875.00;;;;5051330;28;20236;-46
2023/12/12 07:10:31;;;;;;;5.87;2.40;;;15.60;65.50;16.50;99876.00;;;;5049535;28;20224;-45
2023/12/12 07:12:58;;;;;;;3.53;2.20;;;15.50;65.40;16.50;99872.00;;;;5055988;28;20237;-46
2023/12/12 07:15:27;;;;;;;5.37;2.70;;;15.50;65.50;16.50;99872.00;;;;5051698;28;20663;-45
2023/12/12 07:17:53;;;;;;;4.37;2.30;;;15.50;65.40;16.50;99867.00;;;;5050088;28;20199;-46
2023/12/12 07:20:21;;;;;;;4.93;2.50;;;15.50;65.40;16.50;99873.00;;;;5051068;28;20209;-46
2023/12/12 07:22:47;;;;;;;5.90;2.67;;;15.50;65.60;16.50;99868.00;;;;5050971;28;20178;-45
2023/12/12 07:25:13;;;;;;;5.10;2.53;;;15.50;65.50;16.50;99861.00;;;;5055656;28;20178;-45
2023/12/12 07:27:39;;;;;;;3.00;2.10;;;15.50;65.50;16.50;99849.00;;;;5050059;28;20194;-46
2023/12/12 07:30:05;;;;;;;4.50;2.40;;;15.50;65.60;16.50;99857.00;;;;5051222;28;20187;-45
2023/12/12 07:32:31;;;;;;;3.97;2.40;;;15.50;65.60;16.50;99858.00;;;;5051694;28;20197;-46
2023/12/12 07:34:57;;;;;;;3.47;2.30;;;15.50;65.60;16.50;99852.00;;;;5047526;28;20171;-45
2023/12/12 07:37:22;;;;;;;4.00;2.30;;;15.50;65.70;16.40;99845.00;;;;5050296;28;20258;-45
2023/12/12 07:39:48;;;;;;;3.03;2.17;;;15.50;65.60;16.40;99851.00;;;;5050271;28;20245;-45
2023/12/12 07:42:14;;;;;;;2.47;2.10;;;15.50;65.60;16.40;99840.00;;;;5033638;28;20206;-46
2023/12/12 07:44:39;;;;;;;4.27;2.57;;;15.50;65.50;16.40;99851.00;;;;5044957;28;20229;-46
2023/12/12 07:47:07;;;;;;;3.23;2.10;;;15.50;65.50;16.40;99841.00;;;;5049156;28;20194;-45
2023/12/12 07:49:33;;;;;;;4.77;2.57;;;15.50;65.60;16.40;99836.00;;;;5041819;28;20184;-46
2023/12/12 07:51:59;;;;;;;4.60;2.30;;;15.50;65.60;16.40;99841.00;;;;5046635;28;20227;-45
2023/12/12 07:54:25;;;;;;;3.57;2.10;;;15.50;65.60;16.40;99847.00;;;;5049792;28;20200;-45
2023/12/12 07:56:51;;;;;;;2.77;2.30;;;15.50;65.60;16.40;99834.00;;;;5051367;28;20234;-46
2023/12/12 07:59:17;;;;;;;3.77;2.37;;;15.40;65.40;16.40;99826.00;;;;5051539;28;20186;-45
2023/12/12 08:01:43;;;;;;;3.77;2.23;;;15.50;65.60;16.40;99835.00;;;;5051523;28;20774;-46
2023/12/12 08:04:09;;;;;;;4.27;2.20;;;15.40;65.60;16.40;99830.00;;;;5052712;28;20189;-46
2023/12/12 08:06:35;;;;;;;4.53;2.60;;;15.40;65.90;16.40;99819.00;;;;5055829;28;20835;-46
2023/12/12 08:09:02;;;;;;;7.87;2.30;;;15.40;66.00;16.40;99827.00;;;;5049803;28;20254;-45
2023/12/12 08:11:29;;;;;;;4.43;2.50;;;15.30;66.50;16.40;99819.00;;;;5050947;28;20213;-46
2023/12/12 08:13:55;;;;;;;5.77;2.50;;;15.40;67.20;16.30;99810.00;;;;5048632;28;20178;-46
2023/12/12 08:16:23;;;;;;;7.50;2.70;;;15.40;67.20;16.30;99821.00;;;;5050921;28;20211;-46
2023/12/12 08:18:49;;;;;;;3.83;2.40;;;15.50;67.20;16.30;99817.00;;;;5049824;28;20602;-46
2023/12/12 08:21:17;;;;;;;6.30;2.50;;;15.50;67.20;16.40;99821.00;;;;5050200;28;20261;-46
2023/12/12 08:23:44;;;;;;;5.00;2.40;;;15.60;67.10;16.40;99820.00;;;;5050131;28;20170;-45
2023/12/12 08:26:10;;;;;;;4.93;2.50;;;15.70;67.00;16.50;99827.00;;;;5057513;28;20617;-45
2023/12/12 08:28:36;;;;;;;4.50;2.53;;;15.80;67.00;16.50;99822.00;;;;5049758;28;20626;-45
2023/12/12 08:31:03;;;;;;;5.37;2.37;;;15.80;66.90;16.60;99825.00;;;;5049866;28;20205;-45
2023/12/12 08:33:29;;;;;;;5.70;2.40;;;16.00;66.90;16.70;99823.00;;;;5050833;28;20745;-45
2023/12/12 08:35:54;;;;;;;3.17;2.17;;;16.10;66.70;16.80;99817.00;;;;5049202;28;20195;-45
2023/12/12 08:38:20;;;;;;;5.80;2.47;;;16.30;66.60;16.90;99811.00;;;;5050000;28;20175;-46
2023/12/12 08:40:46;;;;;;;5.27;2.30;;;16.40;66.30;17.00;99823.00;;;;5047459;28;20238;-45
2023/12/12 08:43:12;;;;;;;4.67;2.33;;;16.60;66.10;17.10;99809.00;;;;5051957;28;20183;-45
2023/12/12 08:45:38;;;;;;;3.10;2.03;;;16.70;66.10;17.20;99812.00;;;;5047783;28;20264;-45
2023/12/12 08:48:04;;;;;;;4.50;2.17;;;16.80;66.10;17.30;99818.00;;;;5049876;28;20191;-45
2023/12/12 08:50:30;;;;;;;5.07;2.20;;;16.80;66.10;17.30;99820.00;;;;5050088;28;20174;-45
2023/12/12 08:52:58;;;;;;;5.27;2.50;;;16.90;66.60;17.40;99826.00;;;;5049320;28;20560;-45
2023/12/12 08:55:23;;;;;;;5.73;2.17;;;17.00;66.70;17.50;99822.00;;;;5048751;28;20180;-45
2023/12/12 08:57:49;;;;;;;3.53;2.30;;;17.00;66.60;17.60;99813.00;;;;5049625;28;20204;-44
2023/12/12 09:00:16;;;;;;;2.87;2.00;;;17.10;67.10;17.60;99811.00;;;;5049561;28;20551;-46
2023/12/12 09:02:41;;;;;;;4.47;2.40;;;17.10;67.30;17.70;99807.00;;;;5050379;28;20178;-45
2023/12/12 09:05:08;;;;;;;5.13;2.40;;;17.10;67.40;17.70;99810.00;;;;5050928;28;20200;-45
2023/12/12 09:07:34;;;;;;;3.70;2.13;;;17.20;67.50;17.70;99807.00;;;;5048535;28;20239;-44
2023/12/12 09:10:02;;;;;;;3.73;1.90;;;17.20;67.50;17.80;99804.00;;;;5049772;28;20186;-45
2023/12/12 09:12:28;;;;;;;3.67;2.20;;;17.20;67.50;17.80;99804.00;;;;5050375;28;20659;-45
2023/12/12 09:14:54;;;;;;;4.50;2.53;;;17.20;67.50;17.80;99800.00;;;;5053337;28;20209;-46
2023/12/12 09:17:20;;;;;;;4.60;2.27;;;17.20;67.50;17.90;99795.00;;;;5051488;28;20190;-46
2023/12/12 09:19:45;;;;;;;5.00;2.30;;;17.30;67.80;17.90;99770.00;;;;5048477;28;20186;-46
2023/12/12 09:22:11;;;;;;;4.70;2.20;;;17.30;68.10;17.90;99779.00;;;;5049616;28;20173;-45
2023/12/12 09:24:37;;;;;;;2.67;2.00;;;17.30;68.20;17.90;99764.00;;;;5052723;28;20178;-45
2023/12/12 09:27:03;;;;;;;4.77;2.20;;;17.30;68.40;18.00;99766.00;;;;5050178;28;20839;-45
2023/12/12 09:29:29;;;;;;;4.17;2.03;;;17.30;68.70;18.00;99762.00;;;;5049566;28;20259;-45
2023/12/12 09:31:56;;;;;;;3.43;2.10;;;17.40;69.00;18.00;99762.00;;;;5043589;28;20228;-45
2023/12/12 09:34:23;;;;;;;4.87;2.47;;;17.40;69.20;18.10;99753.00;;;;5049903;28;20515;-46
2023/12/12 09:36:50;;;;;;;2.97;2.20;;;17.40;69.30;18.10;99746.00;;;;5049031;28;20204;-45
2023/12/12 09:39:16;;;;;;;4.77;2.20;;;17.40;69.30;18.10;99752.00;;;;5051404;28;20257;-47
2023/12/12 09:41:47;;;;;;;2.83;1.97;;;17.40;69.70;18.10;99749.00;;;;5050901;28;20178;-45
2023/12/12 09:44:15;;;;;;;4.17;2.23;;;17.50;70.10;18.20;99737.00;;;;5048585;28;20224;-48
2023/12/12 09:46:42;;;;;;;5.10;2.10;;;17.50;70.20;18.20;99720.00;;;;5055164;28;20557;-46
2023/12/12 09:49:09;;;;;;;4.03;2.30;;;17.50;70.40;18.20;99725.00;;;;5050471;28;20213;-46
2023/12/12 09:51:35;;;;;;;6.90;1.93;;;17.50;70.70;18.20;99726.00;;;;5048329;28;20273;-45
2023/12/12 09:54:06;;;;;;;5.37;2.77;;;17.50;71.00;18.20;99721.00;;;;5014834;28;20182;-46
2023/12/12 09:56:33;;;;;;;5.00;2.33;;;17.50;71.00;18.20;99708.00;;;;5049542;28;20200;-45
2023/12/12 09:58:59;;;;;;;6.57;2.43;;;17.50;70.60;18.30;99718.00;;;;5047444;28;20184;-45
2023/12/12 10:01:25;;;;;;;7.63;2.57;;;17.50;70.30;18.30;99710.00;;;;5048370;28;20174;-45
2023/12/12 10:03:50;;;;;;;5.07;2.50;;;17.60;70.50;18.30;99705.00;;;;5045387;28;20269;-47
2023/12/12 10:06:17;;;;;;;5.63;2.40;;;17.60;70.50;18.30;99687.00;;;;5053923;28;20217;-46
2023/12/12 10:08:43;;;;;;;9.93;2.60;;;17.60;70.70;18.30;99681.00;;;;5031155;28;20179;-46
2023/12/12 10:11:09;;;;;;;7.83;3.13;;;17.70;71.20;18.40;99691.00;;;;5037990;28;20189;-46
2023/12/12 10:13:58;;;;;;;8.80;2.80;;;17.70;71.30;18.40;99675.00;;;;5049325;28;20232;-45
2023/12/12 10:16:27;;;;;;;7.93;3.00;;;17.70;71.60;18.40;99678.00;;;;5049536;28;20783;-45
2023/12/12 10:18:53;;;;;;;4.90;2.90;;;17.70;71.40;18.40;99672.00;;;;5052328;28;20182;-46
2023/12/12 10:21:20;;;;;;;6.03;2.67;;;17.70;71.20;18.40;99660.00;;;;5053088;28;20180;-45
2023/12/12 10:23:53;;;;;;;6.37;2.53;;;17.70;71.00;18.40;99654.00;;;;5052925;28;20316;-45
2023/12/12 10:26:31;;;;;;;5.87;2.47;;;17.70;70.90;18.40;99643.00;;;;5059734;28;20549;-45
2023/12/12 10:28:57;;;;;;;9.03;2.73;;;17.70;70.70;18.40;99634.00;;;;5051800;28;20182;-45
2023/12/12 10:31:23;;;;;;;6.83;2.90;;;17.70;70.50;18.40;99634.00;;;;5053129;28;20174;-46
2023/12/12 10:33:50;;;;;;;5.27;2.53;;;17.70;70.40;18.40;99623.00;;;;5051094;28;20260;-46
2023/12/12 10:36:16;;;;;;;4.70;2.40;;;17.80;70.40;18.50;99620.00;;;;5044839;28;20198;-46
2023/12/12 10:38:42;;;;;;;5.97;2.60;;;17.70;70.40;18.50;99616.00;;;;5051184;28;20209;-46
2023/12/12 10:41:21;;;;;;;6.07;2.60;;;17.70;70.50;18.50;99609.00;;;;5050502;28;20170;-46
2023/12/12 10:43:47;;;;;;;6.97;2.70;;;17.70;70.40;18.50;99611.00;;;;5045950;28;20589;-46
2023/12/12 10:46:16;;;;;;;7.27;2.63;;;17.70;70.40;18.50;99610.00;;;;5053049;28;20811;-45
2023/12/12 10:48:47;;;;;;;2.93;2.10;;;17.70;70.30;18.50;99611.00;;;;5046206;28;20209;-45
2023/12/12 10:51:20;;;;;;;5.47;2.53;;;17.70;70.30;18.50;99608.00;;;;5053237;28;20178;-45
2023/12/12 10:53:47;;;;;;;4.13;2.30;;;17.70;70.20;18.50;99607.00;;;;5046046;28;20225;-45
2023/12/12 10:56:14;;;;;;;5.63;2.30;;;17.70;70.20;18.50;99609.00;;;;5053466;28;20613;-45
2023/12/12 10:58:42;;;;;;;4.67;2.20;;;17.80;70.20;18.50;99605.00;;;;5052798;28;20174;-46
2023/12/12 11:01:13;;;;;;;3.80;2.20;;;17.80;70.20;18.50;99610.00;;;;5053128;28;20182;-45
2023/12/12 11:03:40;;;;;;;6.50;2.33;;;17.80;70.20;18.50;99611.00;;;;5054770;28;20683;-45